Time;durP1;ratioP1;P1;durP2;ratioP2;P2;SDS_P1;SDS_P2;PMS_P1;PMS_P2;Temp;Humidity;BMP_temperature;BMP_pressure;BME280_temperature;BME280_humidity;BME280_pressure;Samples;Min_cycle;Max_cycle;Signal;HPM_P1;HPM_P2
2021/01/13 00:01:04;;;;;;;5.32;1.50;;;-1.70;99.90;;;;;;5076193;28;20127;-79
2021/01/13 00:03:31;;;;;;;6.38;1.80;;;-1.70;99.90;;;;;;5076218;28;20102;-79
2021/01/13 00:05:57;;;;;;;3.60;1.70;;;-1.80;99.90;;;;;;5076262;28;20079;-79
2021/01/13 00:08:23;;;;;;;8.57;1.65;;;-1.80;99.90;;;;;;5076019;28;20095;-79
2021/01/13 00:10:50;;;;;;;5.00;1.75;;;-1.80;99.90;;;;;;5076182;28;20143;-79
2021/01/13 00:13:17;;;;;;;3.72;1.40;;;-1.90;99.90;;;;;;5076129;28;20519;-79
2021/01/13 00:15:43;;;;;;;9.20;1.90;;;-2.00;99.90;;;;;;5075988;28;20088;-79
2021/01/13 00:18:11;;;;;;;4.07;1.52;;;-2.20;99.90;;;;;;5075167;28;20464;-79
2021/01/13 00:20:37;;;;;;;6.47;2.15;;;-2.30;99.90;;;;;;5074803;28;20128;-79
2021/01/13 00:23:04;;;;;;;6.47;1.17;;;-2.30;99.90;;;;;;5074749;28;20470;-79
2021/01/13 00:25:30;;;;;;;4.60;1.20;;;-2.30;99.90;;;;;;5075963;28;20099;-79
2021/01/13 00:27:56;;;;;;;4.80;1.45;;;-2.50;99.90;;;;;;5076084;28;20569;-79
2021/01/13 00:33:58;;;;;;;7.13;1.92;;;-2.60;99.90;;;;;;5075941;28;20055;-79
2021/01/13 00:36:26;;;;;;;11.07;2.70;;;-2.60;99.90;;;;;;5075832;28;20053;-79
2021/01/13 00:38:53;;;;;;;10.57;3.88;;;-2.60;99.90;;;;;;5076233;28;20137;-79
2021/01/13 00:41:20;;;;;;;4.95;2.85;;;-2.60;99.90;;;;;;5075794;28;20535;-79
2021/01/13 00:43:49;;;;;;;7.00;3.30;;;-2.70;99.90;;;;;;5075195;28;20381;-78
2021/01/13 00:46:16;;;;;;;14.30;3.10;;;-2.70;99.90;;;;;;5080064;28;20470;-80
2021/01/13 00:48:43;;;;;;;19.50;3.05;;;-2.70;99.90;;;;;;5082101;28;20063;-80
2021/01/13 00:51:10;;;;;;;7.20;2.80;;;-2.70;99.90;;;;;;5080916;28;20078;-80
2021/01/13 00:53:37;;;;;;;6.03;2.75;;;-2.70;99.90;;;;;;5082188;28;20079;-80
2021/01/13 00:56:04;;;;;;;10.82;2.67;;;-2.70;99.90;;;;;;5082230;28;20045;-80
2021/01/13 00:58:31;;;;;;;15.20;3.10;;;-2.70;99.90;;;;;;5080632;28;20067;-80
2021/01/13 01:00:58;;;;;;;13.07;2.95;;;-2.60;99.90;;;;;;5080364;28;20055;-80
2021/01/13 01:03:25;;;;;;;12.45;3.78;;;-2.60;99.90;;;;;;5079842;28;20055;-80
2021/01/13 01:05:57;;;;;;;9.57;3.10;;;-2.50;99.90;;;;;;5080424;28;20131;-80
2021/01/13 01:08:24;;;;;;;8.20;2.45;;;-2.40;99.90;;;;;;5081120;28;20135;-79
2021/01/13 01:10:56;;;;;;;10.05;3.22;;;-2.30;99.90;;;;;;5080761;28;20079;-80
2021/01/13 01:13:23;;;;;;;8.60;3.08;;;-2.20;99.90;;;;;;5080295;28;20382;-79
2021/01/13 01:15:49;;;;;;;19.75;4.90;;;-2.10;99.90;;;;;;5082903;28;20112;-80
2021/01/13 01:18:16;;;;;;;14.75;5.40;;;-2.10;99.90;;;;;;5081685;28;20084;-79
2021/01/13 01:20:43;;;;;;;11.43;4.35;;;-2.00;99.90;;;;;;5081187;28;20053;-80
2021/01/13 01:23:10;;;;;;;13.80;4.30;;;-1.90;99.90;;;;;;5080006;28;20059;-80
2021/01/13 01:25:37;;;;;;;10.15;3.42;;;-1.90;99.90;;;;;;5081297;28;20044;-80
2021/01/13 01:28:04;;;;;;;7.90;2.70;;;-1.80;99.90;;;;;;5080046;28;20051;-80
2021/01/13 01:30:31;;;;;;;9.18;2.03;;;-1.70;99.90;;;;;;5080550;28;20052;-79
2021/01/13 01:32:58;;;;;;;6.95;2.28;;;-1.60;99.90;;;;;;5079250;28;20059;-80
2021/01/13 01:35:24;;;;;;;8.57;2.03;;;-1.50;99.90;;;;;;5079302;28;20041;-80
2021/01/13 01:37:51;;;;;;;9.35;1.92;;;-1.50;99.90;;;;;;5078162;28;20048;-80
2021/01/13 01:40:19;;;;;;;9.48;1.52;;;-1.50;99.90;;;;;;5076217;28;20045;-79
2021/01/13 01:42:54;;;;;;;10.48;1.70;;;-1.70;99.90;;;;;;5075471;28;20139;-79
2021/01/13 01:45:29;;;;;;;10.75;1.50;;;-1.80;99.90;;;;;;5077487;28;20056;-79
2021/01/13 01:48:01;;;;;;;4.88;1.77;;;-1.90;99.90;;;;;;5076481;28;20053;-79
2021/01/13 01:50:33;;;;;;;6.38;1.40;;;-2.10;99.90;;;;;;5073764;28;20059;-79
2021/01/13 01:53:21;;;;;;;4.05;1.27;;;-2.10;99.90;;;;;;5073632;28;20052;-79
2021/01/13 01:56:28;;;;;;;2.97;1.50;;;-2.20;99.90;;;;;;5072774;28;20485;-79
2021/01/13 01:59:02;;;;;;;21.23;1.70;;;-2.40;99.90;;;;;;5073566;28;20508;-79
2021/01/13 02:01:34;;;;;;;12.98;1.88;;;-2.50;99.90;;;;;;5072559;28;20048;-78
2021/01/13 02:04:15;;;;;;;7.75;2.03;;;-2.50;99.90;;;;;;5072669;28;20477;-79
2021/01/13 02:07:24;;;;;;;7.72;2.40;;;-2.50;99.90;;;;;;5073915;28;20052;-79
2021/01/13 02:09:52;;;;;;;4.65;2.47;;;-2.40;99.90;;;;;;5069447;28;20048;-79
2021/01/13 02:12:25;;;;;;;13.40;4.13;;;-2.20;99.90;;;;;;5073217;28;20055;-79
2021/01/13 02:14:52;;;;;;;5.80;3.10;;;-2.10;99.90;;;;;;5073827;28;20472;-79
2021/01/13 02:17:28;;;;;;;9.10;3.28;;;-2.10;99.90;;;;;;5073801;28;20059;-78
2021/01/13 02:20:12;;;;;;;7.50;2.63;;;-2.10;99.90;;;;;;5073673;28;20493;-79
2021/01/13 02:22:59;;;;;;;8.88;2.50;;;-2.20;99.90;;;;;;5073685;28;20125;-79
2021/01/13 02:25:45;;;;;;;9.50;2.67;;;-2.20;99.90;;;;;;5073574;28;20048;-79
2021/01/13 02:28:22;;;;;;;8.70;2.60;;;-2.40;99.90;;;;;;5073935;28;20064;-78
2021/01/13 02:31:04;;;;;;;10.40;2.25;;;-2.50;99.90;;;;;;5073572;28;20135;-78
2021/01/13 02:33:52;;;;;;;5.50;1.80;;;-2.70;99.90;;;;;;5072334;28;20048;-79
2021/01/13 02:36:34;;;;;;;2.08;1.85;;;-2.90;99.90;;;;;;5073526;28;20087;-79
2021/01/13 02:39:04;;;;;;;7.78;3.50;;;-3.00;99.90;;;;;;5073463;28;20048;-78
2021/01/13 02:41:35;;;;;;;15.18;3.70;;;-2.90;99.90;;;;;;5072118;28;20058;-79
2021/01/13 02:44:07;;;;;;;12.90;3.17;;;-2.90;99.90;;;;;;5072499;28;20052;-79
2021/01/13 02:46:40;;;;;;;6.47;2.35;;;-2.80;99.90;;;;;;5073236;28;20141;-78
2021/01/13 02:49:09;;;;;;;9.20;3.08;;;-2.90;99.90;;;;;;5072426;28;20059;-78
2021/01/13 02:51:37;;;;;;;8.82;3.42;;;-3.00;99.90;;;;;;5073260;28;20093;-78
2021/01/13 02:54:28;;;;;;;6.90;2.58;;;-3.00;99.90;;;;;;5071941;28;20207;-79
2021/01/13 02:57:04;;;;;;;10.30;2.80;;;-3.10;99.90;;;;;;5073024;28;20041;-78
2021/01/13 02:59:36;;;;;;;8.23;1.92;;;-3.20;99.90;;;;;;5072800;28;20083;-79
2021/01/13 03:02:10;;;;;;;7.57;2.13;;;-3.30;99.90;;;;;;5073889;28;20407;-79
2021/01/13 03:04:38;;;;;;;6.72;2.30;;;-3.40;99.90;;;;;;5078293;28;20058;-80
2021/01/13 03:07:25;;;;;;;4.80;1.55;;;-3.50;99.90;;;;;;5078562;28;20059;-80
2021/01/13 03:09:57;;;;;;;5.43;1.52;;;-3.60;99.90;;;;;;5077661;28;20060;-80
2021/01/13 03:12:26;;;;;;;10.48;1.85;;;-3.60;99.90;;;;;;5077474;28;20135;-80
2021/01/13 03:14:54;;;;;;;2.05;1.25;;;-3.60;99.90;;;;;;5076316;28;20055;-79
2021/01/13 03:17:29;;;;;;;3.63;1.55;;;-3.60;99.90;;;;;;5077033;28;20063;-79
2021/01/13 03:20:17;;;;;;;9.43;2.00;;;-3.70;99.90;;;;;;5076521;28;20047;-78
2021/01/13 03:23:02;;;;;;;6.53;1.92;;;-3.70;99.90;;;;;;5076194;28;20532;-79
2021/01/13 03:25:36;;;;;;;5.95;1.60;;;-3.70;99.90;;;;;;5075919;28;20052;-79
2021/01/13 03:28:05;;;;;;;5.00;1.50;;;-3.80;99.90;;;;;;5074466;28;20048;-79
2021/01/13 03:30:34;;;;;;;4.35;1.25;;;-3.90;99.90;;;;;;5075738;28;20053;-79
2021/01/13 03:33:01;;;;;;;8.88;2.10;;;-4.00;99.90;;;;;;5075385;28;20466;-79
2021/01/13 03:35:37;;;;;;;7.32;1.17;;;-3.90;99.90;;;;;;5075337;28;20056;-79
2021/01/13 03:38:10;;;;;;;6.30;1.23;;;-3.90;99.90;;;;;;5073610;28;20110;-79
2021/01/13 03:40:38;;;;;;;3.83;1.45;;;-3.90;99.90;;;;;;5075233;28;20409;-78
2021/01/13 03:43:22;;;;;;;3.90;1.40;;;-3.90;99.90;;;;;;5074898;28;20493;-78
2021/01/13 03:45:54;;;;;;;5.50;1.63;;;-4.00;99.90;;;;;;5076616;28;20139;-79
2021/01/13 03:48:47;;;;;;;5.10;1.95;;;-4.10;99.90;;;;;;5076462;28;20105;-79
2021/01/13 03:51:50;;;;;;;9.50;3.00;;;-3.90;99.90;;;;;;5073902;28;20476;-79
2021/01/13 03:54:18;;;;;;;4.80;1.88;;;-3.80;99.90;;;;;;5074576;28;20053;-79
2021/01/13 03:56:55;;;;;;;8.63;2.03;;;-3.60;99.90;;;;;;5074354;28;20041;-79
2021/01/13 03:59:48;;;;;;;8.15;1.73;;;-3.70;99.90;;;;;;5075640;28;20048;-79
2021/01/13 04:02:22;;;;;;;9.30;1.73;;;-3.80;99.90;;;;;;5075106;28;20053;-79
2021/01/13 04:05:27;;;;;;;6.00;1.30;;;-3.80;99.90;;;;;;5075131;28;20554;-79
2021/01/13 04:07:55;;;;;;;8.85;1.58;;;-3.80;99.90;;;;;;5062462;28;20058;-78
2021/01/13 04:10:23;;;;;;;3.10;1.15;;;-3.70;99.90;;;;;;5074548;28;20049;-78
2021/01/13 04:13:01;;;;;;;5.50;0.90;;;-3.80;99.90;;;;;;5073279;28;20075;-78
2021/01/13 04:15:38;;;;;;;5.60;1.00;;;-3.80;99.90;;;;;;5075023;28;20107;-78
2021/01/13 04:18:07;;;;;;;7.38;1.42;;;-3.80;99.90;;;;;;5074584;28;20044;-78
2021/01/13 04:20:35;;;;;;;6.90;1.30;;;-3.80;99.90;;;;;;5076349;28;20550;-78
2021/01/13 04:23:04;;;;;;;12.25;1.48;;;-3.80;99.90;;;;;;5077558;28;20135;-78
2021/01/13 04:25:31;;;;;;;7.90;1.40;;;-3.80;99.90;;;;;;5077571;28;20052;-78
2021/01/13 04:27:58;;;;;;;5.15;1.42;;;-3.80;99.90;;;;;;5078080;28;20091;-79
2021/01/13 04:30:26;;;;;;;2.47;1.45;;;-3.90;99.90;;;;;;5077494;28;20052;-78
2021/01/13 04:32:57;;;;;;;6.32;1.55;;;-3.90;99.90;;;;;;5077097;28;20127;-79
2021/01/13 04:35:25;;;;;;;5.13;1.23;;;-3.90;99.90;;;;;;5077171;28;20070;-78
2021/01/13 04:37:54;;;;;;;7.82;1.50;;;-4.00;99.90;;;;;;5077439;28;20044;-78
2021/01/13 04:40:24;;;;;;;3.45;1.20;;;-4.00;99.90;;;;;;5075819;28;20053;-78
2021/01/13 04:43:01;;;;;;;6.53;2.15;;;-4.00;99.90;;;;;;5076825;28;20105;-78
2021/01/13 04:45:40;;;;;;;3.22;1.52;;;-4.00;99.90;;;;;;5076844;28;20139;-79
2021/01/13 04:48:18;;;;;;;5.15;2.20;;;-4.00;99.90;;;;;;5076894;28;20135;-79
2021/01/13 04:50:50;;;;;;;4.47;2.17;;;-4.10;99.90;;;;;;5076707;28;20456;-79
2021/01/13 04:53:21;;;;;;;9.05;1.65;;;-4.20;99.90;;;;;;5080014;28;20132;-79
2021/01/13 04:55:55;;;;;;;9.75;1.65;;;-4.20;99.90;;;;;;5078905;28;20066;-78
2021/01/13 04:58:40;;;;;;;7.68;1.67;;;-4.20;99.90;;;;;;5079644;28;20049;-79
2021/01/13 05:01:37;;;;;;;8.55;1.92;;;-4.30;99.90;;;;;;5078909;28;20135;-79
2021/01/13 05:04:42;;;;;;;4.22;1.70;;;-4.20;99.90;;;;;;5077709;28;20527;-78
2021/01/13 05:07:31;;;;;;;6.90;2.67;;;-4.20;99.90;;;;;;5078206;28;20086;-79
2021/01/13 05:10:15;;;;;;;5.72;1.48;;;-4.10;99.90;;;;;;5078172;28;20045;-78
2021/01/13 05:12:55;;;;;;;4.60;2.05;;;-4.00;99.90;;;;;;5077160;28;20126;-79
2021/01/13 05:15:27;;;;;;;5.60;2.15;;;-3.90;99.90;;;;;;5076745;28;20044;-79
2021/01/13 05:18:04;;;;;;;7.70;2.40;;;-3.80;99.90;;;;;;5077477;28;20044;-79
2021/01/13 05:20:38;;;;;;;9.57;4.00;;;-3.80;99.90;;;;;;5077219;28;20059;-78
2021/01/13 05:23:06;;;;;;;5.90;2.40;;;-3.70;99.90;;;;;;5109031;28;20057;-78
2021/01/13 05:25:50;;;;;;;6.03;2.60;;;-3.70;99.90;;;;;;5075455;28;20052;-79
2021/01/13 05:28:24;;;;;;;4.68;1.92;;;-3.70;99.90;;;;;;5076919;28;20065;-79
2021/01/13 05:30:56;;;;;;;10.13;3.20;;;-3.70;99.90;;;;;;5076627;28;20513;-79
2021/01/13 05:33:30;;;;;;;11.20;3.33;;;-3.70;99.90;;;;;;5075587;28;20106;-79
2021/01/13 05:35:59;;;;;;;7.47;3.83;;;-3.80;99.90;;;;;;5074780;28;20044;-78
2021/01/13 05:39:05;;;;;;;14.77;4.80;;;-3.80;99.90;;;;;;5076626;28;20485;-78
2021/01/13 05:41:36;;;;;;;11.15;3.60;;;-3.70;99.90;;;;;;5075832;28;20444;-79
2021/01/13 05:44:03;;;;;;;9.30;3.83;;;-3.70;99.90;;;;;;5075301;28;20051;-78
2021/01/13 05:46:57;;;;;;;16.42;5.03;;;-3.60;99.90;;;;;;5073839;28;20224;-79
2021/01/13 05:49:25;;;;;;;23.70;9.77;;;-3.70;99.90;;;;;;5073908;28;20393;-78
2021/01/13 05:51:52;;;;;;;14.63;6.18;;;-3.70;99.90;;;;;;5073573;28;20045;-78
2021/01/13 05:54:18;;;;;;;20.42;5.72;;;-3.70;99.90;;;;;;5073910;28;20087;-78
2021/01/13 05:56:46;;;;;;;14.32;4.13;;;-3.60;99.90;;;;;;5072669;28;20059;-78
2021/01/13 05:59:15;;;;;;;15.50;3.38;;;-3.60;99.90;;;;;;5072514;28;20048;-79
2021/01/13 06:01:46;;;;;;;7.60;2.53;;;-3.70;99.90;;;;;;5072887;28;20501;-78
2021/01/13 06:04:16;;;;;;;23.88;6.93;;;-3.60;99.90;;;;;;5073747;28;20044;-78
2021/01/13 06:07:06;;;;;;;32.45;8.70;;;-3.60;99.90;;;;;;5072396;28;20044;-78
2021/01/13 06:09:42;;;;;;;27.55;10.25;;;-3.50;99.90;;;;;;5073984;28;20049;-78
2021/01/13 06:12:19;;;;;;;27.50;11.98;;;-3.50;99.90;;;;;;5073570;28;20052;-79
2021/01/13 06:14:50;;;;;;;21.38;8.05;;;-3.30;99.90;;;;;;5072450;28;20076;-78
2021/01/13 06:17:24;;;;;;;19.02;5.00;;;-3.30;99.90;;;;;;5073530;28;20102;-78
2021/01/13 06:19:53;;;;;;;20.92;6.35;;;-3.20;99.90;;;;;;5073748;28;20051;-78
2021/01/13 06:22:31;;;;;;;27.27;6.00;;;-3.00;99.90;;;;;;5072601;28;20056;-78
2021/01/13 06:25:02;;;;;;;18.00;4.63;;;-3.00;99.90;;;;;;5073717;28;20603;-78
2021/01/13 06:28:03;;;;;;;9.65;4.82;;;-2.90;99.90;;;;;;5072603;28;20048;-79
2021/01/13 06:30:31;;;;;;;12.95;3.03;;;-2.80;99.90;;;;;;5073371;28;20076;-78
2021/01/13 06:33:24;;;;;;;10.30;3.08;;;-2.80;99.90;;;;;;5072481;28;20476;-78
2021/01/13 06:36:05;;;;;;;13.55;3.88;;;-2.60;99.90;;;;;;5073430;28;20111;-78
2021/01/13 06:38:54;;;;;;;35.47;6.88;;;-2.50;99.90;;;;;;5072608;28;20072;-79
2021/01/13 06:41:21;;;;;;;18.80;4.50;;;-2.40;99.90;;;;;;5075653;28;20080;-80
2021/01/13 06:44:04;;;;;;;15.70;4.78;;;-2.30;99.90;;;;;;5078124;28;20052;-80
2021/01/13 06:46:33;;;;;;;8.70;3.35;;;-2.20;99.90;;;;;;5076911;28;20048;-79
2021/01/13 06:49:17;;;;;;;385.23;156.57;;;-2.10;99.90;;;;;;5075582;28;20479;-79
2021/01/13 06:51:46;;;;;;;104.75;42.20;;;-2.20;99.90;;;;;;5075595;28;20052;-80
2021/01/13 06:54:15;;;;;;;20.80;6.32;;;-2.20;99.90;;;;;;5076750;28;20114;-79
2021/01/13 06:56:55;;;;;;;10.43;2.80;;;-2.00;99.90;;;;;;5076125;28;20044;-79
2021/01/13 06:59:23;;;;;;;5.88;3.03;;;-2.00;99.90;;;;;;5075694;28;20045;-79
2021/01/13 07:01:56;;;;;;;52.08;28.40;;;-1.90;99.90;;;;;;5074194;28;20045;-80
2021/01/13 07:04:24;;;;;;;31.63;12.00;;;-1.90;99.90;;;;;;5073705;28;20050;-79
2021/01/13 07:07:05;;;;;;;18.00;3.33;;;-2.00;99.90;;;;;;5075477;28;20052;-79
2021/01/13 07:09:37;;;;;;;15.60;3.38;;;-2.00;99.90;;;;;;5074752;28;20053;-79
2021/01/13 07:12:18;;;;;;;15.82;4.35;;;-2.00;99.90;;;;;;5074507;28;20057;-79
2021/01/13 07:14:49;;;;;;;31.70;15.68;;;-2.10;99.90;;;;;;5075042;28;20564;-79
2021/01/13 07:17:21;;;;;;;21.67;11.23;;;-2.00;99.90;;;;;;5075887;28;20481;-79
2021/01/13 07:19:53;;;;;;;16.23;6.53;;;-2.20;99.90;;;;;;5074775;28;20100;-78
2021/01/13 07:22:24;;;;;;;40.63;14.68;;;-2.30;99.90;;;;;;5074569;28;20056;-79
2021/01/13 07:24:53;;;;;;;130.57;17.10;;;-2.30;99.90;;;;;;5074376;28;20475;-79
2021/01/13 07:27:20;;;;;;;90.32;13.38;;;-2.40;99.90;;;;;;5074120;28;20056;-78
2021/01/13 07:29:48;;;;;;;47.13;9.93;;;-2.40;99.90;;;;;;5073014;28;20519;-79
2021/01/13 07:32:23;;;;;;;45.38;10.07;;;-2.30;99.90;;;;;;5073277;28;20131;-79
2021/01/13 07:34:54;;;;;;;50.50;14.15;;;-2.20;99.90;;;;;;5072379;28;20051;-79
2021/01/13 07:37:24;;;;;;;16.85;5.28;;;-2.20;99.90;;;;;;5073854;28;20049;-79
2021/01/13 07:40:16;;;;;;;14.23;4.07;;;-2.00;99.90;;;;;;5072979;28;20136;-79
2021/01/13 07:42:46;;;;;;;17.27;5.03;;;-1.70;99.90;;;;;;5072565;28;20390;-79
2021/01/13 07:45:17;;;;;;;7.85;4.05;;;-1.40;99.90;;;;;;5073664;28;20131;-79
2021/01/13 07:48:06;;;;;;;10.70;5.35;;;-1.40;99.90;;;;;;5073585;28;20045;-79
2021/01/13 07:50:38;;;;;;;29.85;10.23;;;-1.40;99.90;;;;;;5062184;28;20505;-79
2021/01/13 07:53:08;;;;;;;25.63;8.23;;;-1.40;99.90;;;;;;5073952;28;20090;-79
2021/01/13 07:55:42;;;;;;;19.42;7.78;;;-1.40;99.90;;;;;;5076067;28;20040;-79
2021/01/13 07:58:26;;;;;;;27.95;7.80;;;-1.50;99.90;;;;;;5076987;28;20400;-79
2021/01/13 08:01:35;;;;;;;13.98;3.80;;;-1.50;99.90;;;;;;5076799;28;20123;-79
2021/01/13 08:04:42;;;;;;;22.13;10.55;;;-1.70;99.90;;;;;;5076037;28;20044;-79
2021/01/13 08:07:16;;;;;;;24.83;10.55;;;-1.70;99.90;;;;;;5075714;28;20090;-79
2021/01/13 08:09:50;;;;;;;25.90;10.98;;;-1.60;99.90;;;;;;5074750;28;20052;-79
2021/01/13 08:12:55;;;;;;;28.95;11.70;;;-1.50;99.90;;;;;;5075409;28;20052;-79
2021/01/13 08:15:44;;;;;;;23.58;13.07;;;-1.20;99.90;;;;;;5075902;28;20509;-79
2021/01/13 08:18:34;;;;;;;29.00;13.63;;;-1.00;99.90;;;;;;5069505;28;20048;-78
2021/01/13 08:21:11;;;;;;;16.17;9.77;;;-0.80;99.90;;;;;;5074741;28;20052;-79
2021/01/13 08:23:47;;;;;;;24.77;10.98;;;-0.70;99.90;;;;;;5074525;28;20054;-79
2021/01/13 08:26:15;;;;;;;35.88;16.58;;;-0.50;99.90;;;;;;5074367;28;20049;-78
2021/01/13 08:28:47;;;;;;;26.48;14.05;;;-0.40;99.90;;;;;;5075459;28;20059;-79
2021/01/13 08:31:25;;;;;;;24.13;12.75;;;-0.20;99.90;;;;;;5077999;28;20135;-80
2021/01/13 08:34:06;;;;;;;25.08;14.25;;;-0.10;99.90;;;;;;5079619;28;20048;-80
2021/01/13 08:36:35;;;;;;;25.52;15.45;;;0.10;99.90;;;;;;5080102;28;20041;-80
2021/01/13 08:39:12;;;;;;;27.73;18.75;;;0.20;99.90;;;;;;5078551;28;20123;-79
2021/01/13 08:41:40;;;;;;;19.40;11.80;;;0.30;99.90;;;;;;5079654;28;20045;-80
2021/01/13 08:44:13;;;;;;;18.55;7.35;;;0.40;99.90;;;;;;5079516;28;20163;-79
2021/01/13 08:46:41;;;;;;;5.53;3.03;;;0.50;99.90;;;;;;5078115;28;20041;-80
2021/01/13 08:49:09;;;;;;;11.20;4.45;;;0.50;99.90;;;;;;5077816;28;20051;-80
2021/01/13 08:51:36;;;;;;;26.25;12.75;;;0.60;99.90;;;;;;5078418;28;20041;-80
2021/01/13 08:54:20;;;;;;;12.40;4.70;;;0.70;99.90;;;;;;5076681;28;20456;-80
2021/01/13 08:56:58;;;;;;;11.02;4.05;;;0.70;99.90;;;;;;5078631;28;20045;-80
2021/01/13 08:59:34;;;;;;;16.02;3.78;;;0.80;99.90;;;;;;5077771;28;20044;-79
2021/01/13 09:02:07;;;;;;;11.65;3.47;;;0.90;99.90;;;;;;5077619;28;20040;-79
2021/01/13 09:04:54;;;;;;;5.93;2.85;;;1.10;99.90;;;;;;5076911;28;20044;-80
2021/01/13 09:07:25;;;;;;;11.50;3.55;;;1.20;99.90;;;;;;5075635;28;20048;-80
2021/01/13 09:10:03;;;;;;;12.32;3.47;;;1.40;99.90;;;;;;5075597;28;20131;-80
2021/01/13 09:12:37;;;;;;;6.97;2.83;;;1.50;99.90;;;;;;5076738;28;20466;-80
2021/01/13 09:15:06;;;;;;;9.55;3.28;;;1.70;99.90;;;;;;5077223;28;20044;-79
2021/01/13 09:17:41;;;;;;;9.43;3.17;;;1.90;99.90;;;;;;5075501;28;20128;-80
2021/01/13 09:20:12;;;;;;;5.53;2.78;;;2.00;99.90;;;;;;5077085;28;20048;-80
2021/01/13 09:22:48;;;;;;;6.18;2.65;;;2.20;99.90;;;;;;5076444;28;20060;-77
2021/01/13 09:25:16;;;;;;;9.02;2.83;;;2.30;99.90;;;;;;5076508;28;20588;-79
2021/01/13 09:27:49;;;;;;;9.32;2.50;;;2.40;99.90;;;;;;5076368;28;20090;-78
2021/01/13 09:30:38;;;;;;;7.25;2.38;;;2.40;99.90;;;;;;5074817;28;20113;-78
2021/01/13 09:33:07;;;;;;;11.32;2.35;;;2.50;99.90;;;;;;5075595;28;20041;-79
2021/01/13 09:35:40;;;;;;;6.20;2.30;;;2.50;99.90;;;;;;5073761;28;20044;-78
2021/01/13 09:38:09;;;;;;;6.50;2.40;;;2.50;99.90;;;;;;5075928;28;20045;-79
2021/01/13 09:41:05;;;;;;;5.43;2.30;;;2.50;99.90;;;;;;5074304;28;20505;-80
2021/01/13 09:43:46;;;;;;;6.90;2.33;;;2.60;99.90;;;;;;5074213;28;20083;-79
2021/01/13 09:46:22;;;;;;;7.28;2.20;;;2.80;99.90;;;;;;5075500;28;20055;-77
2021/01/13 09:49:08;;;;;;;5.88;2.00;;;3.00;99.90;;;;;;5075935;28;20127;-79
2021/01/13 09:51:39;;;;;;;5.25;2.08;;;3.10;99.90;;;;;;5076368;28;20048;-78
2021/01/13 09:54:07;;;;;;;8.88;2.03;;;3.10;99.90;;;;;;5079784;28;20422;-78
2021/01/13 09:56:36;;;;;;;6.43;1.85;;;3.10;99.90;;;;;;5079514;28;20044;-79
2021/01/13 09:59:05;;;;;;;7.35;1.92;;;3.10;99.90;;;;;;5078798;28;20045;-78
2021/01/13 10:01:35;;;;;;;11.57;2.40;;;3.00;99.90;;;;;;5079277;28;20044;-78
2021/01/13 10:04:10;;;;;;;3.20;1.80;;;3.00;99.90;;;;;;5078886;28;20492;-78
2021/01/13 10:06:42;;;;;;;4.38;1.92;;;3.00;99.90;;;;;;5074525;28;20423;-79
2021/01/13 10:09:18;;;;;;;4.15;1.80;;;3.00;99.90;;;;;;5077486;28;20504;-79
2021/01/13 10:11:53;;;;;;;5.55;2.28;;;3.00;99.90;;;;;;5076765;28;20098;-78
2021/01/13 10:14:21;;;;;;;7.20;1.85;;;3.10;99.90;;;;;;5076709;28;20048;-78
2021/01/13 10:16:52;;;;;;;8.23;1.92;;;3.30;99.90;;;;;;5075494;28;20055;-78
2021/01/13 10:19:26;;;;;;;5.60;1.92;;;3.30;99.90;;;;;;5078203;28;20044;-78
2021/01/13 10:22:01;;;;;;;6.55;2.00;;;3.40;99.90;;;;;;5078204;28;20045;-79
2021/01/13 10:24:30;;;;;;;7.28;1.98;;;3.50;99.90;;;;;;5080604;28;20078;-79
2021/01/13 10:27:00;;;;;;;5.55;2.15;;;3.50;99.90;;;;;;5080356;28;20056;-79
2021/01/13 10:29:26;;;;;;;4.97;1.90;;;3.60;99.90;;;;;;5077782;28;20072;-79
2021/01/13 10:31:53;;;;;;;7.75;2.20;;;3.70;99.90;;;;;;5079547;28;20044;-79
2021/01/13 10:34:20;;;;;;;6.45;1.52;;;3.50;99.90;;;;;;5077036;28;20528;-79
2021/01/13 10:36:51;;;;;;;6.30;2.00;;;3.50;99.90;;;;;;5077167;28;20413;-79
2021/01/13 10:43:09;;;;;;;3.15;1.50;;;3.30;99.90;;;;;;5073195;28;20094;-79
2021/01/13 10:45:36;;;;;;;6.13;1.50;;;3.30;99.90;;;;;;5073732;28;20119;-78
2021/01/13 10:48:03;;;;;;;1.77;1.38;;;3.40;99.90;;;;;;5075035;28;20112;-78
2021/01/13 10:50:31;;;;;;;4.30;1.40;;;3.30;99.90;;;;;;5073692;28;20132;-78
2021/01/13 10:52:59;;;;;;;4.00;1.95;;;3.20;99.90;;;;;;5075955;28;20070;-78
2021/01/13 10:55:28;;;;;;;6.68;2.13;;;3.30;99.90;;;;;;5072180;28;20080;-78
2021/01/13 10:57:56;;;;;;;7.82;1.98;;;3.60;99.90;;;;;;5075865;28;21171;-78
2021/01/13 11:00:29;;;;;;;3.03;1.35;;;4.40;99.90;;;;;;5072204;28;20048;-78
2021/01/13 11:02:58;;;;;;;3.55;1.55;;;5.00;99.90;;;;;;5075621;28;20048;-78
2021/01/13 11:05:25;;;;;;;4.00;1.80;;;5.50;99.90;;;;;;5074810;28;20066;-78
2021/01/13 11:07:58;;;;;;;4.97;1.35;;;5.80;99.90;;;;;;5074130;28;20489;-78
2021/01/13 11:10:25;;;;;;;4.97;1.55;;;5.70;99.90;;;;;;5077271;28;20056;-78
2021/01/13 11:13:03;;;;;;;4.50;1.83;;;5.30;99.90;;;;;;5074924;28;20040;-77
2021/01/13 11:15:29;;;;;;;3.97;1.85;;;5.10;99.90;;;;;;5074180;28;20572;-78
2021/01/13 11:17:57;;;;;;;7.93;1.85;;;4.90;99.90;;;;;;5075845;28;20045;-78
2021/01/13 11:20:31;;;;;;;5.03;1.45;;;4.50;99.90;;;;;;5059240;28;20048;-78
2021/01/13 11:22:58;;;;;;;5.40;2.35;;;4.10;99.90;;;;;;5053040;28;20111;-79
2021/01/13 11:25:33;;;;;;;7.35;3.30;;;3.80;99.90;;;;;;5053511;28;20092;-78
2021/01/13 11:28:13;;;;;;;4.30;3.10;;;3.60;99.90;;;;;;5055055;28;20486;-78
2021/01/13 11:30:44;;;;;;;3.38;2.42;;;3.40;99.90;;;;;;5058297;28;20102;-78
2021/01/13 11:33:14;;;;;;;5.28;2.08;;;3.40;99.90;;;;;;5057679;28;20138;-78
2021/01/13 11:35:47;;;;;;;2.50;1.73;;;3.30;99.90;;;;;;5058270;28;20049;-78
2021/01/13 11:38:35;;;;;;;4.40;1.45;;;3.30;99.90;;;;;;5043001;28;20128;-78
2021/01/13 11:41:35;;;;;;;1.92;1.15;;;3.30;99.90;;;;;;5038325;28;20085;-78
2021/01/13 11:44:13;;;;;;;2.40;1.58;;;3.30;99.90;;;;;;5038567;28;20505;-79
2021/01/13 11:46:44;;;;;;;3.38;1.50;;;3.40;99.90;;;;;;5039642;28;20045;-79
2021/01/13 11:49:31;;;;;;;2.05;1.08;;;3.50;99.90;;;;;;5038780;28;20074;-78
2021/01/13 11:52:02;;;;;;;1.30;1.10;;;3.60;99.90;;;;;;5039995;28;20111;-78
2021/01/13 11:54:30;;;;;;;3.75;1.10;;;3.60;99.90;;;;;;5041375;28;20065;-79
2021/01/13 11:57:21;;;;;;;2.22;0.93;;;3.70;99.90;;;;;;5046305;28;20045;-78
2021/01/13 11:59:49;;;;;;;0.65;0.60;;;3.80;99.90;;;;;;5055041;28;20147;-78
2021/01/13 12:02:30;;;;;;;1.58;0.90;;;3.70;99.90;;;;;;5058988;28;20068;-78
2021/01/13 12:04:57;;;;;;;0.73;0.60;;;3.90;99.90;;;;;;5058722;28;20132;-78
2021/01/13 12:07:23;;;;;;;1.35;0.90;;;3.80;99.90;;;;;;5058866;28;20461;-78
2021/01/13 12:10:12;;;;;;;0.68;0.63;;;4.00;99.90;;;;;;5058168;28;20041;-78
2021/01/13 12:12:40;;;;;;;1.08;0.73;;;4.10;99.90;;;;;;5058769;28;20040;-79
2021/01/13 12:15:11;;;;;;;2.40;0.85;;;4.20;99.90;;;;;;5057944;28;20116;-79
2021/01/13 12:17:57;;;;;;;1.23;1.13;;;4.30;99.90;;;;;;5057128;28;20045;-78
2021/01/13 12:20:33;;;;;;;2.92;1.25;;;4.10;99.90;;;;;;5057909;28;20106;-78
2021/01/13 12:23:28;;;;;;;1.75;0.80;;;3.90;99.90;;;;;;5058143;28;20091;-78
2021/01/13 12:26:13;;;;;;;2.83;1.17;;;3.50;99.90;;;;;;5057943;28;20122;-78
2021/01/13 12:28:41;;;;;;;0.82;0.82;;;3.30;99.90;;;;;;5057530;28;20049;-78
2021/01/13 12:31:08;;;;;;;4.25;1.48;;;3.30;99.90;;;;;;5057554;28;20524;-78
2021/01/13 12:33:38;;;;;;;1.42;1.00;;;3.30;99.90;;;;;;5055739;28;20099;-78
2021/01/13 12:36:20;;;;;;;2.53;0.98;;;3.30;99.90;;;;;;5056064;28;20075;-78
2021/01/13 12:38:46;;;;;;;2.10;1.55;;;3.30;99.90;;;;;;5057031;28;20081;-78
2021/01/13 12:41:26;;;;;;;2.13;0.93;;;3.30;99.90;;;;;;5055887;28;20049;-78
2021/01/13 12:43:53;;;;;;;2.90;0.98;;;3.30;99.90;;;;;;5055890;28;20468;-77
2021/01/13 12:46:36;;;;;;;3.13;1.02;;;3.30;99.90;;;;;;5054337;28;20198;-78
2021/01/13 12:49:04;;;;;;;3.22;1.00;;;3.20;99.90;;;;;;5056670;28;20053;-77
2021/01/13 12:51:31;;;;;;;2.60;1.20;;;3.20;99.90;;;;;;5057038;28;20049;-78
2021/01/13 12:53:59;;;;;;;3.83;1.10;;;3.20;99.90;;;;;;5057226;28;20084;-78
2021/01/13 12:56:30;;;;;;;2.38;1.27;;;3.20;99.90;;;;;;5055329;28;20044;-78
2021/01/13 12:58:58;;;;;;;8.65;1.50;;;3.20;99.90;;;;;;5056658;28;20045;-77
2021/01/13 13:01:25;;;;;;;2.28;1.08;;;3.20;99.90;;;;;;5055947;28;20069;-78
2021/01/13 13:03:52;;;;;;;5.20;1.30;;;3.20;99.90;;;;;;5054703;28;20092;-78
2021/01/13 13:06:29;;;;;;;4.22;1.23;;;3.30;99.90;;;;;;5054777;28;20483;-78
2021/01/13 13:08:57;;;;;;;1.80;1.55;;;3.30;99.90;;;;;;5054879;28;20052;-78
2021/01/13 13:11:33;;;;;;;2.92;1.65;;;3.20;99.90;;;;;;5054606;28;20132;-78
2021/01/13 13:13:59;;;;;;;3.33;2.08;;;3.10;99.90;;;;;;5054547;28;20132;-77
2021/01/13 13:16:26;;;;;;;4.07;2.35;;;3.00;99.90;;;;;;5054150;28;20127;-78
2021/01/13 13:18:54;;;;;;;2.65;1.20;;;3.00;99.90;;;;;;5055648;28;20045;-79
2021/01/13 13:21:22;;;;;;;6.50;2.38;;;3.00;99.90;;;;;;5056325;28;20056;-78
2021/01/13 13:23:49;;;;;;;3.50;2.40;;;3.00;99.90;;;;;;5057005;28;20405;-79
2021/01/13 13:26:16;;;;;;;3.90;2.00;;;3.00;99.90;;;;;;5056926;28;20080;-79
2021/01/13 13:28:43;;;;;;;3.17;1.85;;;3.10;99.90;;;;;;5057481;28;20084;-79